Portola Valley, California
Current Conditions -  °F | °C
As of 7:47 PM on Sunday 23 Nov 2014 (Local Time) from KPAO Reporting Station
Clear Clear  
Wind Chill: 52°   Ceiling: Unl
Heat Index: 52°   Visibility: 10mi
Dew Point: 46°   Wind: 5mph
Humidity: 82%   Direction: NA
Pressure: 30.3"   Gusts: NA
Location:  37.38°N, 122.24°W
Report Text: KPAO 240347Z VRB04KT 10SM SKC 11/08 A3030
Loading
Personal Weather Stations






























Interactive Weather Map New forecast layout! Learn more

10-Day Weather Forecast

Advertisements
Track Severe Weather on mobile